Terminal Aerodrome Forecast
Issued by NWS

Home | Current Version | Previous Version | Text Only | Print | Product List | Glossary On
Versions: 1 2 3 4 5 6 7 8 9 10 11 12 13 14 15 16 17 18
000
FTUS45 KFGZ 251700
TAFPGA
TAF
KPGA 251731Z 2518/2618 VRB05KT P6SM SCT120
     FM260000 26010G18KT P6SM SCT120 BKN200
     FM260400 VRB06KT P6SM BKN200=

USA.gov is the U.S. government's official web portal to all federal, state and local government web resources and services.